GLO1835 SBGL-SBBR
Flight info
| Callsign | GLO1835 |
|---|---|
| Flight time | 1h 27m |
| Altitude | 38000 |
| Route | UTMI1A EDNAM UM409 ISIPI KOGN2A |
| Aircraft | B738/M-SDFGIKLORWXY/LB1 |
Departure
| Time | 2026-05-06 15:08 |
|---|---|
| Airport | Rio Galeão – Tom Jobim International Airport (SBGL) |
Arrival
| Time | 2026-05-06 16:35 |
|---|---|
| Airport | Presidente Juscelino Kubitschek International Airport (SBBR) |
| Time | Latitude | Longitude | Altitude | Speed | Heading |
|---|---|---|---|---|---|
| 2026-05-06 14:46 | -22.81543 | -43.24747 | 21 ft | 0 kts | 43° |
| 2026-05-06 14:48 | -22.81561 | -43.24764 | 23 ft | 4 kts | 35° |
| 2026-05-06 14:48 | -22.81584 | -43.24777 | 21 ft | 4 kts | 8° |
| 2026-05-06 14:48 | -22.81603 | -43.24773 | 22 ft | 2 kts | 305° |
| 2026-05-06 14:48 | -22.81604 | -43.24772 | 23 ft | 1 kts | 305° |
| 2026-05-06 14:51 | -22.81600 | -43.24778 | 21 ft | 6 kts | 305° |
| 2026-05-06 14:52 | -22.81561 | -43.24836 | 23 ft | 10 kts | 312° |
| 2026-05-06 14:52 | -22.81516 | -43.24892 | 22 ft | 10 kts | 304° |
| 2026-05-06 14:52 | -22.81484 | -43.24957 | 21 ft | 10 kts | 297° |
| 2026-05-06 14:52 | -22.81449 | -43.25017 | 21 ft | 9 kts | 303° |
| 2026-05-06 14:53 | -22.81414 | -43.25075 | 22 ft | 9 kts | 304° |
| 2026-05-06 14:53 | -22.81375 | -43.25125 | 21 ft | 9 kts | 318° |
| 2026-05-06 14:53 | -22.81333 | -43.25178 | 21 ft | 10 kts | 307° |
| 2026-05-06 14:53 | -22.81292 | -43.25241 | 21 ft | 11 kts | 305° |
| 2026-05-06 14:54 | -22.81247 | -43.25302 | 21 ft | 10 kts | 314° |
| 2026-05-06 14:54 | -22.81190 | -43.25346 | 21 ft | 10 kts | 334° |
| 2026-05-06 14:54 | -22.81125 | -43.25369 | 21 ft | 10 kts | 344° |
| 2026-05-06 14:54 | -22.81060 | -43.25385 | 21 ft | 9 kts | 353° |
| 2026-05-06 14:55 | -22.80996 | -43.25382 | 23 ft | 9 kts | 360° |
| 2026-05-06 14:55 | -22.80949 | -43.25422 | 22 ft | 9 kts | 298° |
| 2026-05-06 14:55 | -22.80922 | -43.25487 | 28 ft | 9 kts | 296° |
| 2026-05-06 14:55 | -22.80893 | -43.25553 | 27 ft | 10 kts | 296° |
| 2026-05-06 14:56 | -22.80849 | -43.25635 | 23 ft | 15 kts | 304° |
| 2026-05-06 14:56 | -22.80769 | -43.25682 | 27 ft | 14 kts | 22° |
| 2026-05-06 14:56 | -22.80688 | -43.25624 | 28 ft | 14 kts | 35° |
| 2026-05-06 14:56 | -22.80612 | -43.25566 | 28 ft | 13 kts | 35° |
| 2026-05-06 14:57 | -22.80530 | -43.25543 | 30 ft | 13 kts | 347° |
| 2026-05-06 14:57 | -22.80456 | -43.25592 | 29 ft | 12 kts | 325° |
| 2026-05-06 14:57 | -22.80375 | -43.25613 | 27 ft | 12 kts | 13° |
| 2026-05-06 14:57 | -22.80335 | -43.25585 | 26 ft | 0 kts | 40° |
| 2026-05-06 15:06 | -22.80311 | -43.25563 | 27 ft | 13 kts | 40° |
| 2026-05-06 15:06 | -22.80222 | -43.25498 | 24 ft | 16 kts | 33° |
| 2026-05-06 15:07 | -22.80138 | -43.25323 | 24 ft | 60 kts | 75° |
| 2026-05-06 15:07 | -22.79963 | -43.24639 | 32 ft | 124 kts | 74° |
| 2026-05-06 15:07 | -22.79687 | -43.23554 | 27 ft | 174 kts | 76° |
| 2026-05-06 15:07 | -22.79355 | -43.22204 | 435 ft | 184 kts | 76° |
| 2026-05-06 15:08 | -22.79050 | -43.20881 | 1281 ft | 179 kts | 77° |
| 2026-05-06 15:08 | -22.78761 | -43.19573 | 1726 ft | 181 kts | 77° |
| 2026-05-06 15:08 | -22.78474 | -43.18254 | 2165 ft | 181 kts | 77° |
| 2026-05-06 15:08 | -22.78187 | -43.16928 | 2608 ft | 182 kts | 78° |
| 2026-05-06 15:09 | -22.77885 | -43.15497 | 2934 ft | 208 kts | 78° |
| 2026-05-06 15:09 | -22.77543 | -43.13889 | 3142 ft | 229 kts | 77° |
| 2026-05-06 15:09 | -22.77168 | -43.12134 | 3362 ft | 250 kts | 77° |
| 2026-05-06 15:09 | -22.76770 | -43.10261 | 3791 ft | 264 kts | 76° |
| 2026-05-06 15:10 | -22.76356 | -43.08312 | 4569 ft | 266 kts | 76° |
| 2026-05-06 15:10 | -22.75940 | -43.06351 | 5379 ft | 268 kts | 76° |
| 2026-05-06 15:10 | -22.75521 | -43.04369 | 6143 ft | 272 kts | 76° |
| 2026-05-06 15:10 | -22.75079 | -43.02360 | 6872 ft | 276 kts | 72° |
| 2026-05-06 15:11 | -22.74074 | -43.00594 | 7545 ft | 280 kts | 41° |
| 2026-05-06 15:11 | -22.72385 | -42.99574 | 8262 ft | 283 kts | 15° |
| 2026-05-06 15:11 | -22.70417 | -42.99486 | 8932 ft | 288 kts | 348° |
| 2026-05-06 15:11 | -22.68550 | -43.00305 | 9599 ft | 293 kts | 331° |
| 2026-05-06 15:12 | -22.66691 | -43.01216 | 10228 ft | 297 kts | 349° |
| 2026-05-06 15:12 | -22.64571 | -43.01404 | 10458 ft | 317 kts | 353° |
| 2026-05-06 15:12 | -22.62431 | -43.02199 | 10708 ft | 334 kts | 334° |
| 2026-05-06 15:12 | -22.60311 | -43.03301 | 11271 ft | 340 kts | 336° |
| 2026-05-06 15:13 | -22.58121 | -43.04297 | 11953 ft | 342 kts | 339° |
| 2026-05-06 15:13 | -22.55919 | -43.05203 | 12646 ft | 345 kts | 340° |
| 2026-05-06 15:13 | -22.53628 | -43.06107 | 13314 ft | 348 kts | 340° |
| 2026-05-06 15:13 | -22.51359 | -43.06992 | 13876 ft | 353 kts | 340° |
| 2026-05-06 15:14 | -22.49042 | -43.07898 | 13986 ft | 352 kts | 340° |
| 2026-05-06 15:14 | -22.46732 | -43.08804 | 14012 ft | 355 kts | 340° |
| 2026-05-06 15:14 | -22.44413 | -43.09714 | 14020 ft | 356 kts | 340° |
| 2026-05-06 15:14 | -22.42088 | -43.10627 | 14020 ft | 355 kts | 340° |
| 2026-05-06 15:15 | -22.39762 | -43.11541 | 14016 ft | 355 kts | 340° |
| 2026-05-06 15:15 | -22.37441 | -43.12452 | 14020 ft | 355 kts | 340° |
| 2026-05-06 15:15 | -22.35120 | -43.13360 | 14023 ft | 354 kts | 340° |
| 2026-05-06 15:15 | -22.32803 | -43.14268 | 14025 ft | 354 kts | 340° |
| 2026-05-06 15:16 | -22.30487 | -43.15176 | 14028 ft | 354 kts | 340° |
| 2026-05-06 15:16 | -22.28171 | -43.16084 | 14032 ft | 354 kts | 340° |
| 2026-05-06 15:16 | -22.25886 | -43.16979 | 14044 ft | 354 kts | 340° |
| 2026-05-06 15:16 | -22.23568 | -43.17887 | 14033 ft | 354 kts | 340° |
| 2026-05-06 15:17 | -22.21246 | -43.18796 | 14032 ft | 355 kts | 340° |
| 2026-05-06 15:17 | -22.18920 | -43.19706 | 14031 ft | 355 kts | 340° |
| 2026-05-06 15:17 | -22.16598 | -43.20615 | 14042 ft | 355 kts | 340° |
| 2026-05-06 15:17 | -22.14321 | -43.21648 | 14081 ft | 359 kts | 332° |
| 2026-05-06 15:18 | -22.12132 | -43.22976 | 14700 ft | 362 kts | 329° |
| 2026-05-06 15:18 | -22.09977 | -43.24380 | 15486 ft | 362 kts | 328° |
| 2026-05-06 15:18 | -22.07819 | -43.25795 | 16159 ft | 365 kts | 328° |
| 2026-05-06 15:18 | -22.05626 | -43.27217 | 16754 ft | 370 kts | 329° |
| 2026-05-06 15:19 | -22.03401 | -43.28641 | 17344 ft | 374 kts | 329° |
| 2026-05-06 15:19 | -22.01146 | -43.30069 | 17949 ft | 378 kts | 329° |
| 2026-05-06 15:19 | -21.98866 | -43.31504 | 18533 ft | 381 kts | 329° |
| 2026-05-06 15:19 | -21.96562 | -43.32949 | 19108 ft | 385 kts | 329° |
| 2026-05-06 15:20 | -21.94259 | -43.34390 | 19681 ft | 388 kts | 329° |
| 2026-05-06 15:20 | -21.91915 | -43.35855 | 20246 ft | 391 kts | 329° |
| 2026-05-06 15:20 | -21.89553 | -43.37331 | 20786 ft | 394 kts | 329° |
| 2026-05-06 15:20 | -21.87170 | -43.38819 | 21350 ft | 397 kts | 329° |
| 2026-05-06 15:21 | -21.84776 | -43.40315 | 21887 ft | 400 kts | 329° |
| 2026-05-06 15:21 | -21.82357 | -43.41825 | 22407 ft | 403 kts | 329° |
| 2026-05-06 15:21 | -21.79920 | -43.43346 | 22882 ft | 406 kts | 329° |
| 2026-05-06 15:21 | -21.77471 | -43.44874 | 23363 ft | 409 kts | 329° |
| 2026-05-06 15:22 | -21.75001 | -43.46414 | 23836 ft | 412 kts | 329° |
| 2026-05-06 15:22 | -21.72512 | -43.47965 | 24289 ft | 414 kts | 329° |
| 2026-05-06 15:22 | -21.70008 | -43.49524 | 24728 ft | 417 kts | 329° |
| 2026-05-06 15:22 | -21.67486 | -43.51095 | 25152 ft | 420 kts | 329° |
| 2026-05-06 15:23 | -21.64954 | -43.52673 | 25574 ft | 423 kts | 329° |
| 2026-05-06 15:23 | -21.62392 | -43.54269 | 26008 ft | 425 kts | 329° |
| 2026-05-06 15:23 | -21.59830 | -43.55864 | 26407 ft | 428 kts | 329° |
| 2026-05-06 15:23 | -21.57237 | -43.57476 | 26786 ft | 431 kts | 329° |
| 2026-05-06 15:24 | -21.54667 | -43.59074 | 27147 ft | 434 kts | 329° |
| 2026-05-06 15:24 | -21.52043 | -43.60702 | 27539 ft | 436 kts | 328° |
| 2026-05-06 15:24 | -21.49412 | -43.62333 | 27913 ft | 438 kts | 329° |
| 2026-05-06 15:24 | -21.46756 | -43.63980 | 28262 ft | 441 kts | 328° |
| 2026-05-06 15:25 | -21.44088 | -43.65633 | 28600 ft | 444 kts | 328° |
| 2026-05-06 15:25 | -21.41399 | -43.67299 | 28940 ft | 446 kts | 328° |
| 2026-05-06 15:25 | -21.38710 | -43.68966 | 29278 ft | 448 kts | 328° |
| 2026-05-06 15:25 | -21.36000 | -43.70644 | 29591 ft | 451 kts | 328° |
| 2026-05-06 15:26 | -21.33277 | -43.72330 | 29905 ft | 453 kts | 328° |
| 2026-05-06 15:26 | -21.30567 | -43.74008 | 30223 ft | 455 kts | 328° |
| 2026-05-06 15:26 | -21.27817 | -43.75708 | 30531 ft | 457 kts | 328° |
| 2026-05-06 15:26 | -21.25063 | -43.77428 | 30813 ft | 459 kts | 327° |
| 2026-05-06 15:27 | -21.22323 | -43.79200 | 31087 ft | 462 kts | 327° |
| 2026-05-06 15:27 | -21.19572 | -43.81008 | 31348 ft | 464 kts | 327° |
| 2026-05-06 15:27 | -21.16818 | -43.82827 | 31601 ft | 466 kts | 327° |
| 2026-05-06 15:27 | -21.14050 | -43.84652 | 31851 ft | 468 kts | 327° |
| 2026-05-06 15:28 | -21.11266 | -43.86480 | 32101 ft | 469 kts | 327° |
| 2026-05-06 15:28 | -21.08478 | -43.88305 | 32430 ft | 469 kts | 327° |
| 2026-05-06 15:28 | -21.05694 | -43.90122 | 32798 ft | 467 kts | 327° |
| 2026-05-06 15:28 | -21.02925 | -43.91928 | 33130 ft | 467 kts | 327° |
| 2026-05-06 15:29 | -21.00150 | -43.93736 | 33418 ft | 467 kts | 327° |
| 2026-05-06 15:29 | -20.97375 | -43.95544 | 33701 ft | 467 kts | 326° |
| 2026-05-06 15:29 | -20.94602 | -43.97350 | 34004 ft | 466 kts | 326° |
| 2026-05-06 15:29 | -20.91866 | -43.99131 | 34315 ft | 465 kts | 326° |
| 2026-05-06 15:30 | -20.89100 | -44.00931 | 34578 ft | 466 kts | 326° |
| 2026-05-06 15:30 | -20.86329 | -44.02734 | 34776 ft | 467 kts | 326° |
| 2026-05-06 15:30 | -20.83543 | -44.04546 | 34949 ft | 469 kts | 326° |
| 2026-05-06 15:30 | -20.80752 | -44.06361 | 35234 ft | 468 kts | 326° |
| 2026-05-06 15:31 | -20.77972 | -44.08167 | 35563 ft | 466 kts | 326° |
| 2026-05-06 15:31 | -20.75202 | -44.09960 | 35831 ft | 466 kts | 326° |
| 2026-05-06 15:31 | -20.72422 | -44.11747 | 36021 ft | 467 kts | 326° |
| 2026-05-06 15:32 | -20.66875 | -44.15354 | 36451 ft | 467 kts | 325° |
| 2026-05-06 15:32 | -20.64102 | -44.17164 | 36677 ft | 467 kts | 325° |
| 2026-05-06 15:32 | -20.61332 | -44.18958 | 36954 ft | 465 kts | 326° |
| 2026-05-06 15:32 | -20.58573 | -44.20723 | 37378 ft | 459 kts | 326° |
| 2026-05-06 15:33 | -20.55866 | -44.22450 | 37632 ft | 458 kts | 326° |
| 2026-05-06 15:33 | -20.53125 | -44.24199 | 37742 ft | 460 kts | 326° |
| 2026-05-06 15:33 | -20.47622 | -44.27718 | 38031 ft | 461 kts | 326° |
| 2026-05-06 15:34 | -20.44869 | -44.29478 | 38148 ft | 460 kts | 326° |
| 2026-05-06 15:34 | -20.42149 | -44.31221 | 38120 ft | 452 kts | 325° |
| 2026-05-06 15:34 | -20.36854 | -44.34640 | 38129 ft | 441 kts | 325° |
| 2026-05-06 15:35 | -20.31622 | -44.38029 | 38144 ft | 439 kts | 325° |
| 2026-05-06 15:35 | -20.26401 | -44.41406 | 38128 ft | 438 kts | 325° |
| 2026-05-06 15:36 | -20.21230 | -44.44743 | 38128 ft | 437 kts | 325° |
| 2026-05-06 15:36 | -20.16017 | -44.48105 | 38133 ft | 438 kts | 325° |
| 2026-05-06 15:37 | -20.10801 | -44.51458 | 38146 ft | 438 kts | 325° |
| 2026-05-06 15:37 | -20.05556 | -44.54808 | 38127 ft | 441 kts | 325° |
| 2026-05-06 15:38 | -20.00281 | -44.58174 | 38125 ft | 442 kts | 325° |
| 2026-05-06 15:38 | -19.94995 | -44.61547 | 38118 ft | 444 kts | 325° |
| 2026-05-06 15:39 | -19.89732 | -44.64903 | 38120 ft | 444 kts | 325° |
| 2026-05-06 15:39 | -19.84429 | -44.68283 | 38120 ft | 445 kts | 325° |
| 2026-05-06 15:40 | -19.79103 | -44.71672 | 38115 ft | 446 kts | 325° |
| 2026-05-06 15:40 | -19.73777 | -44.75062 | 38110 ft | 447 kts | 325° |
| 2026-05-06 15:41 | -19.68445 | -44.78454 | 38106 ft | 447 kts | 325° |
| 2026-05-06 15:41 | -19.63115 | -44.81841 | 38107 ft | 446 kts | 325° |
| 2026-05-06 15:42 | -19.57781 | -44.85229 | 38104 ft | 446 kts | 325° |
| 2026-05-06 15:42 | -19.52458 | -44.88605 | 38099 ft | 445 kts | 325° |
| 2026-05-06 15:43 | -19.47151 | -44.91971 | 38100 ft | 444 kts | 325° |
| 2026-05-06 15:43 | -19.41885 | -44.95312 | 38102 ft | 443 kts | 325° |
| 2026-05-06 15:44 | -19.36594 | -44.98667 | 38099 ft | 442 kts | 325° |
| 2026-05-06 15:44 | -19.31316 | -45.02016 | 38093 ft | 442 kts | 325° |
| 2026-05-06 15:45 | -19.26039 | -45.05356 | 38105 ft | 442 kts | 325° |
| 2026-05-06 15:45 | -19.20756 | -45.08697 | 38104 ft | 442 kts | 325° |
| 2026-05-06 15:46 | -19.15466 | -45.12039 | 38101 ft | 443 kts | 325° |
| 2026-05-06 15:46 | -19.10208 | -45.15360 | 38102 ft | 443 kts | 325° |
| 2026-05-06 15:47 | -19.04912 | -45.18701 | 38104 ft | 443 kts | 325° |
| 2026-05-06 15:47 | -18.99617 | -45.22039 | 38098 ft | 443 kts | 325° |
| 2026-05-06 15:48 | -18.94327 | -45.25375 | 38103 ft | 443 kts | 325° |
| 2026-05-06 15:48 | -18.89031 | -45.28711 | 38099 ft | 443 kts | 325° |
| 2026-05-06 15:49 | -18.83734 | -45.32044 | 38103 ft | 443 kts | 325° |
| 2026-05-06 15:49 | -18.78468 | -45.35356 | 38104 ft | 443 kts | 325° |
| 2026-05-06 15:50 | -18.73161 | -45.38691 | 38096 ft | 444 kts | 325° |
| 2026-05-06 15:50 | -18.68738 | -45.41469 | 38096 ft | 444 kts | 325° |
| 2026-05-06 15:51 | -18.63415 | -45.44810 | 38092 ft | 445 kts | 325° |
| 2026-05-06 15:51 | -18.58096 | -45.48144 | 38088 ft | 445 kts | 325° |
| 2026-05-06 15:52 | -18.52807 | -45.51459 | 38091 ft | 444 kts | 325° |
| 2026-05-06 15:52 | -18.47489 | -45.54790 | 38095 ft | 444 kts | 325° |
| 2026-05-06 15:53 | -18.42227 | -45.58188 | 38086 ft | 442 kts | 321° |
| 2026-05-06 15:53 | -18.37295 | -45.62014 | 38101 ft | 440 kts | 318° |
| 2026-05-06 15:54 | -18.32428 | -45.65921 | 38092 ft | 440 kts | 318° |
| 2026-05-06 15:54 | -18.27532 | -45.69790 | 38088 ft | 440 kts | 319° |
| 2026-05-06 15:55 | -18.22622 | -45.73625 | 38091 ft | 440 kts | 319° |
| 2026-05-06 15:55 | -18.17730 | -45.77434 | 38094 ft | 439 kts | 319° |
| 2026-05-06 15:56 | -18.12815 | -45.81260 | 38094 ft | 439 kts | 319° |
| 2026-05-06 15:56 | -18.07903 | -45.85081 | 38090 ft | 439 kts | 319° |
| 2026-05-06 15:57 | -18.02993 | -45.88895 | 38092 ft | 438 kts | 319° |
| 2026-05-06 15:57 | -17.98089 | -45.92706 | 38088 ft | 438 kts | 319° |
| 2026-05-06 15:58 | -17.93186 | -45.96513 | 38096 ft | 438 kts | 319° |
| 2026-05-06 15:58 | -17.88289 | -46.00314 | 38090 ft | 438 kts | 319° |
| 2026-05-06 15:59 | -17.83382 | -46.04117 | 38093 ft | 438 kts | 319° |
| 2026-05-06 15:59 | -17.78505 | -46.07897 | 38094 ft | 438 kts | 319° |
| 2026-05-06 16:00 | -17.73601 | -46.11700 | 38094 ft | 438 kts | 319° |
| 2026-05-06 16:00 | -17.68689 | -46.15506 | 38097 ft | 439 kts | 319° |
| 2026-05-06 16:01 | -17.63775 | -46.19311 | 38090 ft | 439 kts | 319° |
| 2026-05-06 16:01 | -17.58861 | -46.23114 | 38091 ft | 439 kts | 319° |
| 2026-05-06 16:02 | -17.53954 | -46.26908 | 38089 ft | 440 kts | 319° |
| 2026-05-06 16:02 | -17.49065 | -46.30686 | 38074 ft | 440 kts | 319° |
| 2026-05-06 16:03 | -17.44131 | -46.34490 | 38062 ft | 440 kts | 319° |
| 2026-05-06 16:03 | -17.39196 | -46.38293 | 38063 ft | 440 kts | 319° |
| 2026-05-06 16:04 | -17.34269 | -46.42091 | 38058 ft | 440 kts | 319° |
| 2026-05-06 16:04 | -17.29342 | -46.45887 | 38061 ft | 439 kts | 319° |
| 2026-05-06 16:05 | -17.24419 | -46.49674 | 38061 ft | 438 kts | 319° |
| 2026-05-06 16:05 | -17.19509 | -46.53454 | 38056 ft | 438 kts | 319° |
| 2026-05-06 16:06 | -17.14607 | -46.57223 | 38067 ft | 437 kts | 319° |
| 2026-05-06 16:06 | -17.09830 | -46.61120 | 38070 ft | 434 kts | 315° |
| 2026-05-06 16:07 | -17.07562 | -46.63152 | 37850 ft | 436 kts | 314° |
| 2026-05-06 16:07 | -17.05279 | -46.65232 | 37511 ft | 433 kts | 314° |
| 2026-05-06 16:07 | -17.03014 | -46.67293 | 37060 ft | 431 kts | 314° |
| 2026-05-06 16:07 | -17.00747 | -46.69344 | 36569 ft | 431 kts | 315° |
| 2026-05-06 16:08 | -16.98472 | -46.71388 | 36062 ft | 431 kts | 315° |
| 2026-05-06 16:08 | -16.96191 | -46.73428 | 35517 ft | 433 kts | 315° |
| 2026-05-06 16:08 | -16.93899 | -46.75471 | 35037 ft | 433 kts | 315° |
| 2026-05-06 16:08 | -16.91612 | -46.77503 | 34656 ft | 430 kts | 315° |
| 2026-05-06 16:09 | -16.89340 | -46.79522 | 34255 ft | 428 kts | 315° |
| 2026-05-06 16:09 | -16.87069 | -46.81539 | 33862 ft | 426 kts | 315° |
| 2026-05-06 16:09 | -16.84823 | -46.83533 | 33476 ft | 424 kts | 315° |
| 2026-05-06 16:09 | -16.82581 | -46.85524 | 33092 ft | 422 kts | 315° |
| 2026-05-06 16:10 | -16.80346 | -46.87506 | 32706 ft | 419 kts | 315° |
| 2026-05-06 16:10 | -16.78135 | -46.89469 | 32325 ft | 417 kts | 316° |
| 2026-05-06 16:10 | -16.75931 | -46.91425 | 31953 ft | 415 kts | 316° |
| 2026-05-06 16:10 | -16.73737 | -46.93371 | 31582 ft | 413 kts | 316° |
| 2026-05-06 16:11 | -16.71558 | -46.95304 | 31212 ft | 411 kts | 316° |
| 2026-05-06 16:11 | -16.69403 | -46.97214 | 30842 ft | 409 kts | 316° |
| 2026-05-06 16:11 | -16.67215 | -46.99153 | 30468 ft | 407 kts | 316° |
| 2026-05-06 16:11 | -16.65064 | -47.01058 | 30109 ft | 404 kts | 316° |
| 2026-05-06 16:12 | -16.62955 | -47.02926 | 29754 ft | 402 kts | 317° |
| 2026-05-06 16:12 | -16.60831 | -47.04806 | 29369 ft | 399 kts | 317° |
| 2026-05-06 16:12 | -16.58720 | -47.06675 | 28994 ft | 397 kts | 317° |
| 2026-05-06 16:12 | -16.56620 | -47.08533 | 28603 ft | 395 kts | 317° |
| 2026-05-06 16:13 | -16.54535 | -47.10377 | 28229 ft | 392 kts | 317° |
| 2026-05-06 16:13 | -16.52459 | -47.12213 | 27856 ft | 390 kts | 317° |
| 2026-05-06 16:13 | -16.50398 | -47.14034 | 27485 ft | 387 kts | 317° |
| 2026-05-06 16:13 | -16.48347 | -47.15847 | 27118 ft | 385 kts | 317° |
| 2026-05-06 16:14 | -16.46312 | -47.17646 | 26752 ft | 383 kts | 317° |
| 2026-05-06 16:14 | -16.44288 | -47.19435 | 26389 ft | 381 kts | 317° |
| 2026-05-06 16:14 | -16.42271 | -47.21217 | 26024 ft | 378 kts | 318° |
| 2026-05-06 16:14 | -16.40266 | -47.22987 | 25664 ft | 376 kts | 318° |
| 2026-05-06 16:15 | -16.38270 | -47.24742 | 25310 ft | 374 kts | 319° |
| 2026-05-06 16:15 | -16.36288 | -47.26426 | 24961 ft | 372 kts | 320° |
| 2026-05-06 16:15 | -16.34271 | -47.28108 | 24606 ft | 369 kts | 320° |
| 2026-05-06 16:15 | -16.32272 | -47.29766 | 24259 ft | 367 kts | 320° |
| 2026-05-06 16:16 | -16.30276 | -47.31422 | 23909 ft | 365 kts | 320° |
| 2026-05-06 16:16 | -16.28300 | -47.33067 | 23559 ft | 363 kts | 320° |
| 2026-05-06 16:16 | -16.26333 | -47.34707 | 23215 ft | 361 kts | 320° |
| 2026-05-06 16:16 | -16.24380 | -47.36338 | 22869 ft | 359 kts | 320° |
| 2026-05-06 16:17 | -16.22441 | -47.37958 | 22527 ft | 357 kts | 320° |
| 2026-05-06 16:17 | -16.20508 | -47.39572 | 22182 ft | 355 kts | 320° |
| 2026-05-06 16:17 | -16.18592 | -47.41173 | 21843 ft | 353 kts | 320° |
| 2026-05-06 16:17 | -16.16686 | -47.42765 | 21516 ft | 351 kts | 320° |
| 2026-05-06 16:18 | -16.14785 | -47.44352 | 21164 ft | 348 kts | 320° |
| 2026-05-06 16:18 | -16.12899 | -47.45926 | 20844 ft | 346 kts | 320° |
| 2026-05-06 16:18 | -16.11026 | -47.47488 | 20506 ft | 344 kts | 320° |
| 2026-05-06 16:18 | -16.09163 | -47.49043 | 20177 ft | 342 kts | 321° |
| 2026-05-06 16:19 | -16.07308 | -47.50590 | 19845 ft | 340 kts | 321° |
| 2026-05-06 16:19 | -16.05465 | -47.52126 | 19521 ft | 338 kts | 321° |
| 2026-05-06 16:19 | -16.03636 | -47.53649 | 19197 ft | 336 kts | 321° |
| 2026-05-06 16:19 | -16.01840 | -47.55146 | 18877 ft | 334 kts | 321° |
| 2026-05-06 16:20 | -16.00030 | -47.56653 | 18549 ft | 332 kts | 321° |
| 2026-05-06 16:20 | -15.98232 | -47.58151 | 18226 ft | 330 kts | 321° |
| 2026-05-06 16:20 | -15.96443 | -47.59641 | 17909 ft | 328 kts | 320° |
| 2026-05-06 16:20 | -15.94923 | -47.61381 | 17537 ft | 326 kts | 298° |
| 2026-05-06 16:21 | -15.93912 | -47.63461 | 17276 ft | 321 kts | 295° |
| 2026-05-06 16:21 | -15.92941 | -47.65545 | 16936 ft | 320 kts | 295° |
| 2026-05-06 16:21 | -15.91975 | -47.67621 | 16624 ft | 319 kts | 295° |
| 2026-05-06 16:21 | -15.91004 | -47.69697 | 16301 ft | 318 kts | 295° |
| 2026-05-06 16:22 | -15.90039 | -47.71749 | 15985 ft | 316 kts | 296° |
| 2026-05-06 16:22 | -15.89071 | -47.73798 | 15664 ft | 315 kts | 296° |
| 2026-05-06 16:22 | -15.88105 | -47.75837 | 15357 ft | 313 kts | 296° |
| 2026-05-06 16:22 | -15.87144 | -47.77861 | 15038 ft | 312 kts | 296° |
| 2026-05-06 16:23 | -15.86185 | -47.79879 | 14730 ft | 311 kts | 296° |
| 2026-05-06 16:23 | -15.85232 | -47.81883 | 14421 ft | 310 kts | 296° |
| 2026-05-06 16:23 | -15.84279 | -47.83888 | 14102 ft | 309 kts | 296° |
| 2026-05-06 16:23 | -15.83328 | -47.85882 | 13789 ft | 307 kts | 297° |
| 2026-05-06 16:24 | -15.82382 | -47.87868 | 13487 ft | 306 kts | 297° |
| 2026-05-06 16:24 | -15.81444 | -47.89842 | 13278 ft | 301 kts | 297° |
| 2026-05-06 16:24 | -15.80529 | -47.91761 | 13156 ft | 293 kts | 297° |
| 2026-05-06 16:24 | -15.79636 | -47.93633 | 13024 ft | 286 kts | 297° |
| 2026-05-06 16:25 | -15.78768 | -47.95451 | 12916 ft | 278 kts | 297° |
| 2026-05-06 16:25 | -15.77922 | -47.97223 | 12794 ft | 270 kts | 297° |
| 2026-05-06 16:25 | -15.77318 | -47.99029 | 12612 ft | 266 kts | 274° |
| 2026-05-06 16:25 | -15.77386 | -48.00914 | 12368 ft | 263 kts | 266° |
| 2026-05-06 16:26 | -15.77521 | -48.02816 | 12048 ft | 265 kts | 266° |
| 2026-05-06 16:26 | -15.77655 | -48.04730 | 11738 ft | 266 kts | 266° |
| 2026-05-06 16:26 | -15.77785 | -48.06642 | 11454 ft | 264 kts | 266° |
| 2026-05-06 16:26 | -15.77911 | -48.08541 | 11193 ft | 263 kts | 266° |
| 2026-05-06 16:27 | -15.78037 | -48.10436 | 10908 ft | 262 kts | 266° |
| 2026-05-06 16:27 | -15.78160 | -48.12329 | 10639 ft | 262 kts | 266° |
| 2026-05-06 16:27 | -15.78279 | -48.14197 | 10517 ft | 255 kts | 266° |
| 2026-05-06 16:27 | -15.78398 | -48.16047 | 10284 ft | 258 kts | 266° |
| 2026-05-06 16:28 | -15.78517 | -48.17903 | 10025 ft | 257 kts | 266° |
| 2026-05-06 16:28 | -15.78690 | -48.19746 | 9761 ft | 256 kts | 255° |
| 2026-05-06 16:28 | -15.79550 | -48.21317 | 9552 ft | 249 kts | 221° |
| 2026-05-06 16:28 | -15.81006 | -48.22185 | 9319 ft | 240 kts | 194° |
| 2026-05-06 16:29 | -15.82629 | -48.22354 | 9057 ft | 231 kts | 174° |
| 2026-05-06 16:29 | -15.84177 | -48.22085 | 8813 ft | 223 kts | 154° |
| 2026-05-06 16:29 | -15.85340 | -48.21114 | 8613 ft | 213 kts | 126° |
| 2026-05-06 16:29 | -15.86070 | -48.19785 | 8410 ft | 213 kts | 113° |
| 2026-05-06 16:30 | -15.86695 | -48.18379 | 8167 ft | 217 kts | 113° |
| 2026-05-06 16:30 | -15.87113 | -48.17438 | 8028 ft | 214 kts | 113° |
| 2026-05-06 16:30 | -15.87794 | -48.15554 | 7711 ft | 204 kts | 92° |
| 2026-05-06 16:30 | -15.87721 | -48.14090 | 7327 ft | 205 kts | 85° |
| 2026-05-06 16:31 | -15.87627 | -48.12629 | 7052 ft | 202 kts | 86° |
| 2026-05-06 16:31 | -15.87535 | -48.11202 | 6816 ft | 198 kts | 86° |
| 2026-05-06 16:31 | -15.87434 | -48.09793 | 6584 ft | 193 kts | 85° |
| 2026-05-06 16:31 | -15.87346 | -48.08420 | 6367 ft | 187 kts | 86° |
| 2026-05-06 16:32 | -15.87268 | -48.07122 | 6245 ft | 171 kts | 86° |
| 2026-05-06 16:32 | -15.87194 | -48.05895 | 5962 ft | 168 kts | 86° |
| 2026-05-06 16:32 | -15.87123 | -48.04716 | 5736 ft | 163 kts | 86° |
| 2026-05-06 16:32 | -15.87056 | -48.03567 | 5570 ft | 159 kts | 86° |
| 2026-05-06 16:33 | -15.86979 | -48.02404 | 5348 ft | 161 kts | 86° |
| 2026-05-06 16:33 | -15.86903 | -48.01244 | 5126 ft | 160 kts | 86° |
| 2026-05-06 16:33 | -15.86828 | -48.00092 | 4895 ft | 160 kts | 86° |
| 2026-05-06 16:34 | -15.86680 | -47.97789 | 4477 ft | 160 kts | 86° |
| 2026-05-06 16:34 | -15.86605 | -47.96639 | 4271 ft | 160 kts | 86° |
| 2026-05-06 16:34 | -15.86531 | -47.95478 | 4034 ft | 161 kts | 86° |
| 2026-05-06 16:34 | -15.86458 | -47.94329 | 3832 ft | 158 kts | 86° |
| 2026-05-06 16:35 | -15.86384 | -47.93192 | 3607 ft | 159 kts | 86° |
| 2026-05-06 16:35 | -15.86309 | -47.92057 | 3467 ft | 149 kts | 88° |
| 2026-05-06 16:35 | -15.86253 | -47.91147 | 3469 ft | 96 kts | 86° |
| 2026-05-06 16:35 | -15.86269 | -47.90842 | 3477 ft | 23 kts | 124° |
| 2026-05-06 16:36 | -15.86329 | -47.90766 | 3482 ft | 11 kts | 131° |
| 2026-05-06 16:36 | -15.86369 | -47.90723 | 3484 ft | 7 kts | 143° |
| 2026-05-06 16:36 | -15.86414 | -47.90727 | 3484 ft | 7 kts | 231° |
| 2026-05-06 16:36 | -15.86428 | -47.90796 | 3482 ft | 7 kts | 268° |
| 2026-05-06 16:37 | -15.86428 | -47.90854 | 3479 ft | 9 kts | 269° |
| 2026-05-06 16:37 | -15.86431 | -47.90897 | 3476 ft | 11 kts | 266° |
| 2026-05-06 16:37 | -15.86437 | -47.90986 | 3472 ft | 14 kts | 266° |
| 2026-05-06 16:37 | -15.86444 | -47.91092 | 3469 ft | 15 kts | 267° |
| 2026-05-06 16:38 | -15.86450 | -47.91197 | 3468 ft | 14 kts | 265° |
| 2026-05-06 16:38 | -15.86458 | -47.91298 | 3467 ft | 14 kts | 265° |
| 2026-05-06 16:38 | -15.86463 | -47.91393 | 3466 ft | 13 kts | 270° |
| 2026-05-06 16:38 | -15.86467 | -47.91487 | 3463 ft | 13 kts | 259° |
| 2026-05-06 16:39 | -15.86475 | -47.91578 | 3463 ft | 13 kts | 266° |
| 2026-05-06 16:39 | -15.86532 | -47.91626 | 3465 ft | 12 kts | 167° |
| 2026-05-06 16:39 | -15.86617 | -47.91624 | 3470 ft | 12 kts | 176° |
| 2026-05-06 16:39 | -15.86677 | -47.91667 | 3471 ft | 12 kts | 251° |
| 2026-05-06 16:40 | -15.86736 | -47.91709 | 3471 ft | 10 kts | 198° |
| 2026-05-06 16:40 | -15.86750 | -47.91751 | 3471 ft | 3 kts | 266° |
| 2026-05-06 16:40 | -15.86750 | -47.91755 | 3471 ft | 0 kts | 267° |